Time;durP1;ratioP1;P1;durP2;ratioP2;P2;SDS_P1;SDS_P2;PMS_P1;PMS_P2;Temp;Humidity;BMP_temperature;BMP_pressure;BME280_temperature;BME280_humidity;BME280_pressure;Samples;Min_cycle;Max_cycle;Signal;HPM_P1;HPM_P2
2022/03/12 00:00:13;;;;;;;7.10;4.99;;;;;;;-7.39;81.46;101934.83;473825;111;930548;-69
2022/03/12 00:01:17;;;;;;;9.21;6.29;;;;;;;-7.37;81.47;101934.73;473832;111;931152;-67
2022/03/12 00:02:21;;;;;;;8.11;5.33;;;;;;;-7.37;81.52;101934.73;473570;111;922662;-71
2022/03/12 00:03:24;;;;;;;6.91;5.01;;;;;;;-7.36;81.47;101941.77;473830;111;930636;-68
2022/03/12 00:04:30;;;;;;;6.43;4.53;;;;;;;-7.37;81.44;101938.25;472948;111;930484;-69
2022/03/12 00:05:33;;;;;;;8.23;4.53;;;;;;;-7.39;81.34;101932.18;468796;111;930551;-67
2022/03/12 00:06:36;;;;;;;5.25;4.22;;;;;;;-7.39;81.30;101937.48;469610;111;922567;-69
2022/03/12 00:07:41;;;;;;;4.47;3.81;;;;;;;-7.39;81.42;101937.48;467779;111;930465;-68
2022/03/12 00:08:44;;;;;;;10.32;4.39;;;;;;;-7.38;81.45;101933.88;469529;111;922532;-70
2022/03/12 00:09:50;;;;;;;4.10;3.28;;;;;;;-7.36;81.43;101936.47;473125;111;922698;-69
2022/03/12 00:10:54;;;;;;;5.82;3.22;;;;;;;-7.35;81.42;101927.59;473969;111;922516;-68
2022/03/12 00:12:00;;;;;;;3.81;3.01;;;;;;;-7.36;81.49;101929.38;475321;111;923026;-69
2022/03/12 00:13:02;;;;;;;3.18;2.38;;;;;;;-7.36;81.45;101929.38;474779;111;930564;-69
2022/03/12 00:14:07;;;;;;;3.62;2.64;;;;;;;-7.37;81.45;101927.66;473918;111;923049;-69
2022/03/12 00:15:12;;;;;;;4.38;2.32;;;;;;;-7.38;81.36;101925.92;473115;111;922637;-68
2022/03/12 00:16:22;;;;;;;3.56;2.48;;;;;;;-7.38;81.36;101922.41;472906;111;922561;-69
2022/03/12 00:17:25;;;;;;;3.31;2.62;;;;;;;-7.38;81.31;101925.92;473029;111;922596;-68
2022/03/12 00:18:30;;;;;;;3.88;2.94;;;;;;;-7.38;81.37;101923.28;474628;111;922540;-69
2022/03/12 00:19:33;;;;;;;3.59;2.80;;;;;;;-7.39;81.34;101924.23;473897;111;922630;-69
2022/03/12 00:20:37;;;;;;;4.49;2.46;;;;;;;-7.40;81.28;101927.80;470715;110;922586;-67
2022/03/12 00:21:42;;;;;;;2.96;2.22;;;;;;;-7.42;81.19;101928.78;471348;110;930466;-68
2022/03/12 00:22:48;;;;;;;4.24;2.83;;;;;;;-7.45;81.14;101926.28;466206;110;922636;-70
2022/03/12 00:23:53;;;;;;;3.50;2.69;;;;;;;-7.47;81.14;101926.34;469189;110;922499;-69
2022/03/12 00:24:57;;;;;;;3.16;2.73;;;;;;;-7.47;81.03;101928.13;476212;110;922488;-71
2022/03/12 00:26:00;;;;;;;3.14;2.26;;;;;;;-7.47;81.12;101922.83;472750;110;922469;-68
2022/03/12 00:27:04;;;;;;;3.69;2.77;;;;;;;-7.47;81.15;101918.39;465106;110;922779;-68
2022/03/12 00:28:08;;;;;;;3.25;2.58;;;;;;;-7.48;81.06;101918.45;471754;110;930586;-69
2022/03/12 00:29:15;;;;;;;3.77;2.90;;;;;;;-7.51;80.96;101919.47;478184;110;922523;-68
2022/03/12 00:30:22;;;;;;;2.43;2.22;;;;;;;-7.50;81.04;101925.63;470286;110;923067;-69
2022/03/12 00:31:26;;;;;;;3.38;2.69;;;;;;;-7.52;80.98;101923.03;476073;110;922863;-69
2022/03/12 00:32:30;;;;;;;4.11;2.45;;;;;;;-7.54;80.98;101924.87;472431;110;922571;-69
2022/03/12 00:33:33;;;;;;;3.71;2.65;;;;;;;-7.55;80.93;101917.02;468319;110;922668;-67
2022/03/12 00:34:37;;;;;;;3.30;2.29;;;;;;;-7.57;80.91;101925.03;472664;110;922708;-69
2022/03/12 00:35:40;;;;;;;3.69;2.29;;;;;;;-7.57;80.99;101924.16;477597;110;930369;-69
2022/03/12 00:36:44;;;;;;;3.29;2.38;;;;;;;-7.57;80.90;101921.52;475941;110;922821;-69
2022/03/12 00:37:47;;;;;;;4.12;2.42;;;;;;;-7.56;80.82;101923.25;471398;110;922455;-69
2022/03/12 00:38:51;;;;;;;3.15;2.42;;;;;;;-7.58;80.82;101923.30;470715;110;922890;-70
2022/03/12 00:39:54;;;;;;;3.32;2.39;;;;;;;-7.60;80.76;101923.36;475469;110;930713;-69
2022/03/12 00:41:02;;;;;;;3.98;2.46;;;;;;;-7.63;80.67;101915.56;467980;110;922660;-70
2022/03/12 00:42:04;;;;;;;3.73;2.54;;;;;;;-7.64;80.53;101920.91;471741;110;922390;-70
2022/03/12 00:43:07;;;;;;;3.47;2.41;;;;;;;-7.67;80.42;101924.58;473163;110;922935;-67
2022/03/12 00:44:17;;;;;;;2.85;2.24;;;;;;;-7.69;80.46;101922.91;470261;110;922446;-68
2022/03/12 00:45:21;;;;;;;3.41;2.54;;;;;;;-7.73;80.39;101932.77;479463;110;930428;-69
2022/03/12 00:46:25;;;;;;;2.56;1.99;;;;;;;-7.76;80.25;101929.38;476555;110;930247;-71
2022/03/12 00:47:31;;;;;;;2.31;1.95;;;;;;;-7.81;80.13;101932.23;474313;110;922543;-69
2022/03/12 00:48:35;;;;;;;3.35;2.48;;;;;;;-7.86;80.09;101925.41;467802;110;922318;-69
2022/03/12 00:49:40;;;;;;;2.29;2.06;;;;;;;-7.91;80.03;101927.39;471277;110;922686;-70
2022/03/12 00:50:44;;;;;;;2.77;2.33;;;;;;;-7.95;80.02;101931.09;473652;110;922469;-69
2022/03/12 00:51:48;;;;;;;3.08;2.27;;;;;;;-7.96;80.06;101929.37;475120;110;930203;-69
2022/03/12 00:52:51;;;;;;;3.60;2.17;;;;;;;-7.96;80.10;101926.72;470066;110;930361;-69
2022/03/12 00:53:55;;;;;;;3.67;2.34;;;;;;;-7.97;80.02;101925.00;470701;110;923060;-67
2022/03/12 00:54:58;;;;;;;2.77;2.29;;;;;;;-7.97;80.04;101927.64;471038;110;930263;-69
2022/03/12 00:56:02;;;;;;;4.08;2.33;;;;;;;-7.98;79.99;101928.56;470700;110;922929;-68
2022/03/12 00:57:06;;;;;;;2.91;2.45;;;;;;;-7.99;79.96;101927.70;472579;110;922756;-69
2022/03/12 00:58:10;;;;;;;5.37;2.31;;;;;;;-8.01;79.90;101925.14;470399;110;922586;-69
2022/03/12 00:59:13;;;;;;;2.77;2.07;;;;;;;-8.00;79.91;101928.65;478597;110;930600;-69
2022/03/12 01:00:19;;;;;;;3.37;2.61;;;;;;;-7.99;79.97;101929.52;471636;110;923013;-68
2022/03/12 01:01:25;;;;;;;4.40;2.93;;;;;;;-7.97;80.07;101925.00;473556;110;930529;-68
2022/03/12 01:02:29;;;;;;;4.59;3.04;;;;;;;-7.96;80.10;101926.72;478312;110;922523;-68
2022/03/12 01:03:33;;;;;;;3.42;2.76;;;;;;;-7.97;80.08;101931.16;471296;110;923312;-68
2022/03/12 01:04:37;;;;;;;4.43;2.94;;;;;;;-7.98;80.08;101926.78;465924;110;930593;-69
2022/03/12 01:05:44;;;;;;;3.96;3.05;;;;;;;-8.00;80.02;101928.65;466965;110;930606;-69
2022/03/12 01:06:47;;;;;;;4.32;2.83;;;;;;;-8.02;80.07;101923.41;471883;110;922623;-69
2022/03/12 01:07:51;;;;;;;4.13;3.02;;;;;;;-8.03;80.03;101923.46;467269;110;923045;-67
2022/03/12 01:08:54;;;;;;;4.11;2.79;;;;;;;-8.05;80.03;101923.52;467687;110;930525;-67
2022/03/12 01:09:59;;;;;;;4.12;3.15;;;;;;;-8.10;79.96;101916.70;472048;110;922887;-67
2022/03/12 01:11:08;;;;;;;4.20;3.55;;;;;;;-8.15;79.98;101916.02;474166;110;922614;-68
2022/03/12 01:12:11;;;;;;;6.37;3.84;;;;;;;-8.17;80.03;101916.11;472122;110;930486;-69
2022/03/12 01:13:15;;;;;;;6.19;3.74;;;;;;;-8.18;80.12;101922.32;466866;110;922607;-70
2022/03/12 01:14:18;;;;;;;4.59;3.37;;;;;;;-8.19;80.05;101919.73;465889;110;922429;-69
2022/03/12 01:15:22;;;;;;;5.49;3.75;;;;;;;-8.23;79.99;101920.79;470198;110;923038;-68
2022/03/12 01:16:26;;;;;;;5.02;3.97;;;;;;;-8.27;80.00;101925.32;470755;110;922586;-69
2022/03/12 01:17:32;;;;;;;6.78;3.84;;;;;;;-8.27;79.94;101919.20;468575;110;922680;-67
2022/03/12 01:18:37;;;;;;;5.22;3.85;;;;;;;-8.26;80.11;101918.25;472704;110;922612;-69
2022/03/12 01:19:41;;;;;;;5.96;3.71;;;;;;;-8.22;80.22;101920.73;469951;110;922894;-67
2022/03/12 01:20:44;;;;;;;4.56;3.23;;;;;;;-8.19;80.38;101912.66;472120;110;922829;-70
2022/03/12 01:21:48;;;;;;;4.83;4.10;;;;;;;-8.18;80.24;101919.67;475837;110;922333;-68
2022/03/12 01:22:51;;;;;;;4.52;3.64;;;;;;;-8.17;80.25;101917.89;472616;110;922960;-71
2022/03/12 01:23:55;;;;;;;4.68;3.73;;;;;;;-8.17;80.24;101912.60;472632;110;922543;-68
2022/03/12 01:24:58;;;;;;;4.20;3.24;;;;;;;-8.16;80.24;101909.88;473935;110;922585;-69
2022/03/12 01:26:02;;;;;;;4.45;3.02;;;;;;;-8.16;80.29;101907.22;475315;110;930603;-67
2022/03/12 01:27:06;;;;;;;5.01;2.91;;;;;;;-8.11;80.34;101909.70;477237;110;922583;-69
2022/03/12 01:28:11;;;;;;;3.39;2.66;;;;;;;-8.08;80.41;101906.92;471760;110;922600;-68
2022/03/12 01:29:14;;;;;;;3.19;2.44;;;;;;;-8.06;80.41;101907.73;473779;110;924663;-67
2022/03/12 01:30:21;;;;;;;3.04;2.46;;;;;;;-8.03;80.55;101910.23;471268;110;922574;-68
2022/03/12 01:31:25;;;;;;;3.40;2.92;;;;;;;-8.02;80.53;101910.17;474679;110;922496;-69
2022/03/12 01:32:28;;;;;;;2.84;2.49;;;;;;;-8.03;80.49;101900.52;474113;110;922464;-70
2022/03/12 01:33:31;;;;;;;4.98;2.15;;;;;;;-8.02;80.50;101907.53;473046;110;930386;-67
2022/03/12 01:34:35;;;;;;;4.01;2.76;;;;;;;-8.02;80.53;101910.17;475392;110;922534;-68
2022/03/12 01:35:38;;;;;;;2.91;2.37;;;;;;;-8.00;80.62;101912.77;475893;110;922762;-66
2022/03/12 01:36:42;;;;;;;3.45;2.44;;;;;;;-7.99;80.64;101913.62;476029;110;923094;-68
2022/03/12 01:37:46;;;;;;;3.55;2.90;;;;;;;-7.98;80.59;101910.03;473814;110;922646;-67
2022/03/12 01:38:52;;;;;;;4.01;2.68;;;;;;;-7.98;80.70;101907.39;476359;110;922855;-68
2022/03/12 01:39:55;;;;;;;4.16;2.44;;;;;;;-7.98;80.69;101910.89;470632;110;922532;-68
2022/03/12 01:41:02;;;;;;;3.09;2.40;;;;;;;-7.97;80.73;101907.33;472966;110;922897;-69
2022/03/12 01:42:07;;;;;;;3.33;2.88;;;;;;;-7.96;80.73;101903.77;473330;110;922567;-69
2022/03/12 01:43:10;;;;;;;3.41;2.50;;;;;;;-7.96;80.62;101909.06;470577;110;922521;-68
2022/03/12 01:44:17;;;;;;;3.71;2.64;;;;;;;-7.96;80.66;101905.55;474456;110;922566;-69
2022/03/12 01:45:24;;;;;;;3.48;2.41;;;;;;;-7.96;80.66;101908.20;474033;110;922550;-68
2022/03/12 01:46:36;;;;;;;2.95;2.51;;;;;;;-7.95;80.72;101901.98;474029;110;923020;-70
2022/03/12 01:47:40;;;;;;;3.01;2.47;;;;;;;-7.95;80.69;101915.22;471220;110;922420;-68
2022/03/12 01:48:50;;;;;;;3.30;2.67;;;;;;;-7.94;80.77;101911.65;471687;110;922470;-69
2022/03/12 01:49:54;;;;;;;2.66;2.43;;;;;;;-7.94;80.76;101903.70;472471;110;922622;-69
2022/03/12 01:50:59;;;;;;;4.47;2.30;;;;;;;-7.95;80.76;101907.28;473988;110;922674;-69
2022/03/12 01:52:03;;;;;;;2.80;2.33;;;;;;;-7.95;80.86;101910.79;471802;110;922600;-68
2022/03/12 01:53:10;;;;;;;2.57;2.05;;;;;;;-7.95;80.78;101909.92;473291;110;922661;-68
2022/03/12 01:54:19;;;;;;;3.20;2.53;;;;;;;-7.97;80.73;101906.47;474905;110;922573;-69
2022/03/12 01:55:23;;;;;;;2.99;2.65;;;;;;;-7.97;80.77;101909.98;475160;110;923061;-68
2022/03/12 01:56:28;;;;;;;4.24;2.80;;;;;;;-7.96;80.78;101913.48;468768;110;922525;-68
2022/03/12 01:57:32;;;;;;;3.66;2.71;;;;;;;-7.96;80.84;101913.48;474894;110;922525;-69
2022/03/12 01:58:36;;;;;;;4.60;2.81;;;;;;;-7.96;80.87;101908.20;473807;110;922554;-70
2022/03/12 01:59:39;;;;;;;6.97;3.81;;;;;;;-7.95;80.88;101904.63;475017;110;923044;-68
2022/03/12 02:00:46;;;;;;;4.26;3.14;;;;;;;-7.96;80.94;101903.77;474000;110;922607;-69
2022/03/12 02:01:54;;;;;;;4.86;3.49;;;;;;;-7.94;80.87;101903.70;473795;110;922720;-68
2022/03/12 02:02:58;;;;;;;5.46;3.96;;;;;;;-7.98;80.81;101900.31;476660;110;922655;-69
2022/03/12 02:04:04;;;;;;;5.73;4.35;;;;;;;-7.97;80.73;101901.17;473443;110;922847;-69
2022/03/12 02:05:10;;;;;;;4.71;3.86;;;;;;;-8.02;80.69;101894.30;472552;110;922668;-70
2022/03/12 02:06:17;;;;;;;6.24;4.13;;;;;;;-8.07;80.55;101904.22;473948;110;922761;-66
2022/03/12 02:07:23;;;;;;;5.76;4.33;;;;;;;-8.11;80.52;101902.63;473171;110;922686;-68
2022/03/12 02:08:27;;;;;;;4.84;4.35;;;;;;;-8.13;80.61;101907.11;473140;110;922924;-70
2022/03/12 02:09:31;;;;;;;4.22;3.43;;;;;;;-8.15;80.59;101900.16;472103;110;922503;-67
2022/03/12 02:10:36;;;;;;;5.90;3.99;;;;;;;-8.14;80.64;101900.09;468445;110;922620;-69
2022/03/12 02:11:41;;;;;;;4.71;4.18;;;;;;;-8.16;80.60;101895.81;471066;110;922502;-68
2022/03/12 02:12:44;;;;;;;4.07;3.01;;;;;;;-8.17;80.62;101905.53;470336;110;930497;-68
2022/03/12 02:13:48;;;;;;;4.72;3.26;;;;;;;-8.16;80.69;101906.39;473775;110;923168;-69
2022/03/12 02:14:51;;;;;;;3.55;2.65;;;;;;;-8.15;80.67;101902.80;473246;110;930611;-68
2022/03/12 02:16:07;;;;;;;3.76;3.09;;;;;;;-8.16;80.62;101901.11;472188;110;922541;-69
2022/03/12 02:17:12;;;;;;;3.02;2.62;;;;;;;-8.16;80.72;101901.11;474597;110;930691;-67
2022/03/12 02:18:15;;;;;;;4.59;2.51;;;;;;;-8.14;80.75;101909.81;473174;110;922429;-69
2022/03/12 02:19:22;;;;;;;2.86;2.49;;;;;;;-8.15;80.71;101911.59;475336;110;930508;-68
2022/03/12 02:20:26;;;;;;;3.65;2.74;;;;;;;-8.18;80.64;101902.94;474238;110;922548;-69
2022/03/12 02:21:34;;;;;;;3.11;2.24;;;;;;;-8.21;80.60;101909.20;475514;110;922616;-68
2022/03/12 02:22:38;;;;;;;4.06;2.55;;;;;;;-8.24;80.46;101913.77;475582;110;930401;-69
2022/03/12 02:23:46;;;;;;;2.89;2.53;;;;;;;-8.28;80.44;101905.11;476034;110;923055;-69
2022/03/12 02:24:49;;;;;;;3.71;2.74;;;;;;;-8.30;80.43;101904.33;478428;110;922581;-69
2022/03/12 02:25:53;;;;;;;3.44;2.96;;;;;;;-8.31;80.45;101909.67;471508;110;922492;-68
2022/03/12 02:26:58;;;;;;;2.87;2.28;;;;;;;-8.33;80.43;101916.84;469265;110;922992;-69
2022/03/12 02:28:04;;;;;;;3.67;2.51;;;;;;;-8.33;80.40;101907.12;467384;110;930409;-66
2022/03/12 02:29:11;;;;;;;3.53;2.85;;;;;;;-8.34;80.44;101905.39;474478;110;922538;-67
2022/03/12 02:30:14;;;;;;;4.76;2.75;;;;;;;-8.36;80.40;101909.87;474064;110;922859;-68
2022/03/12 02:31:18;;;;;;;3.36;2.50;;;;;;;-8.35;80.46;101908.09;474498;110;922515;-68
2022/03/12 02:32:22;;;;;;;3.05;2.50;;;;;;;-8.33;80.51;101907.12;471184;110;922576;-68
2022/03/12 02:33:27;;;;;;;5.49;2.87;;;;;;;-8.30;80.56;101914.05;471546;110;922521;-69
2022/03/12 02:34:48;;;;;;;3.34;2.34;;;;;;;-8.28;80.57;101912.19;474967;110;922618;-67
2022/03/12 02:35:53;;;;;;;2.41;1.84;;;;;;;-8.27;80.62;101906.80;469288;110;922525;-68
2022/03/12 02:36:57;;;;;;;2.75;2.24;;;;;;;-8.27;80.63;101913.91;471974;110;922513;-66
2022/03/12 02:38:03;;;;;;;3.33;1.80;;;;;;;-8.29;80.54;101908.67;473827;110;922526;-68
2022/03/12 02:39:08;;;;;;;2.66;2.02;;;;;;;-8.30;80.55;101914.05;474518;110;923106;-69
2022/03/12 02:40:13;;;;;;;2.98;2.00;;;;;;;-8.32;80.53;101907.98;474874;110;922589;-69
2022/03/12 02:41:20;;;;;;;2.79;2.07;;;;;;;-8.32;80.57;101911.45;474521;110;922496;-70
2022/03/12 02:42:24;;;;;;;2.91;2.17;;;;;;;-8.31;80.61;101909.67;468973;110;922829;-68
2022/03/12 02:43:28;;;;;;;2.54;2.06;;;;;;;-8.31;80.58;101913.19;469892;110;922669;-69
2022/03/12 02:44:31;;;;;;;3.11;1.98;;;;;;;-8.33;80.49;101915.05;474165;110;922539;-69
2022/03/12 02:45:34;;;;;;;2.75;2.15;;;;;;;-8.34;80.40;101910.68;474804;110;930384;-70
2022/03/12 02:46:40;;;;;;;3.70;2.22;;;;;;;-8.35;80.41;101911.59;470544;110;922947;-70
2022/03/12 02:47:44;;;;;;;2.71;2.02;;;;;;;-8.33;80.45;101911.55;476710;110;930396;-69
2022/03/12 02:48:51;;;;;;;3.74;1.88;;;;;;;-8.34;80.38;101920.39;472655;110;922620;-69
2022/03/12 02:49:58;;;;;;;2.89;1.93;;;;;;;-8.35;80.33;101919.53;468376;110;922699;-68
2022/03/12 02:51:02;;;;;;;3.23;2.88;;;;;;;-8.40;80.14;101924.15;471073;110;923401;-69
2022/03/12 02:52:06;;;;;;;3.46;2.28;;;;;;;-8.45;80.14;101931.41;471998;110;922648;-69
2022/03/12 02:53:09;;;;;;;2.99;2.14;;;;;;;-8.48;80.16;101926.22;472134;110;922605;-67
2022/03/12 02:54:13;;;;;;;3.48;1.86;;;;;;;-8.50;80.18;101931.59;470495;110;922596;-68
2022/03/12 02:55:21;;;;;;;2.80;2.24;;;;;;;-8.53;80.16;101926.41;472069;110;922629;-68
2022/03/12 02:56:26;;;;;;;4.18;2.36;;;;;;;-8.55;80.09;101930.92;475231;110;922494;-68
2022/03/12 02:57:30;;;;;;;3.42;2.03;;;;;;;-8.61;80.07;101931.16;473812;110;922626;-69
2022/03/12 02:58:33;;;;;;;3.47;2.22;;;;;;;-8.66;79.98;101933.12;474249;110;922925;-69
2022/03/12 02:59:42;;;;;;;3.67;2.34;;;;;;;-8.67;80.00;101946.39;476518;110;922700;-68
2022/03/12 03:00:47;;;;;;;2.37;1.87;;;;;;;-8.68;80.01;101936.73;474101;110;930490;-67
2022/03/12 03:01:51;;;;;;;4.48;2.75;;;;;;;-8.68;80.01;101942.02;470601;110;923123;-68
2022/03/12 03:02:56;;;;;;;3.58;2.67;;;;;;;-8.69;80.03;101927.07;468626;110;922580;-70
2022/03/12 03:03:59;;;;;;;3.24;2.29;;;;;;;-8.70;80.00;101930.62;467394;110;923348;-68
2022/03/12 03:05:03;;;;;;;4.28;2.40;;;;;;;-8.70;80.06;101933.27;467736;110;922670;-69
2022/03/12 03:06:07;;;;;;;3.41;2.62;;;;;;;-8.70;79.89;101935.91;468610;110;922580;-68
2022/03/12 03:07:11;;;;;;;5.59;2.98;;;;;;;-8.70;79.81;101935.91;474455;110;922492;-69
2022/03/12 03:08:18;;;;;;;3.58;2.52;;;;;;;-8.70;79.80;101931.49;472371;110;930559;-70
2022/03/12 03:09:22;;;;;;;3.65;2.66;;;;;;;-8.67;79.85;101935.81;471082;110;923014;-68
2022/03/12 03:10:34;;;;;;;2.41;2.15;;;;;;;-8.66;79.83;101937.55;471484;110;922597;-69
2022/03/12 03:11:39;;;;;;;3.47;2.61;;;;;;;-8.67;79.84;101934.03;471366;110;930382;-69
2022/03/12 03:12:42;;;;;;;2.92;2.47;;;;;;;-8.66;79.84;101938.41;473056;110;922837;-68
2022/03/12 03:13:47;;;;;;;3.69;2.34;;;;;;;-8.65;79.90;101940.11;469955;110;922628;-68
2022/03/12 03:14:50;;;;;;;3.41;2.53;;;;;;;-8.63;79.95;101937.41;468737;110;922519;-68
2022/03/12 03:16:00;;;;;;;3.36;1.98;;;;;;;-8.62;79.96;101939.14;468862;110;922563;-70
2022/03/12 03:17:04;;;;;;;2.85;2.01;;;;;;;-8.60;80.04;101934.66;468443;110;923590;-68
2022/03/12 03:18:09;;;;;;;2.49;2.16;;;;;;;-8.56;80.17;101934.48;472174;110;922517;-69
2022/03/12 03:19:12;;;;;;;4.32;2.31;;;;;;;-8.55;80.15;101937.98;475555;110;922997;-70
2022/03/12 03:20:16;;;;;;;2.27;1.94;;;;;;;-8.55;80.13;101935.34;479282;110;922650;-68
2022/03/12 03:21:25;;;;;;;2.86;2.05;;;;;;;-8.57;80.11;101929.23;470652;110;922556;-67
2022/03/12 03:22:28;;;;;;;2.49;1.70;;;;;;;-8.61;80.03;101936.45;467834;110;923413;-68
2022/03/12 03:23:31;;;;;;;2.06;1.64;;;;;;;-8.64;79.97;101933.04;471969;110;922653;-70
2022/03/12 03:24:35;;;;;;;3.08;2.25;;;;;;;-8.68;79.88;101932.31;476352;110;930393;-68
2022/03/12 03:25:39;;;;;;;3.04;2.11;;;;;;;-8.70;79.97;101936.78;473912;110;922907;-69
2022/03/12 03:26:46;;;;;;;1.89;1.65;;;;;;;-8.70;79.97;101936.78;473204;110;922546;-69
2022/03/12 03:27:50;;;;;;;4.53;1.99;;;;;;;-8.68;80.07;101931.44;473173;110;923332;-69
2022/03/12 03:28:53;;;;;;;3.09;2.11;;;;;;;-8.68;80.05;101926.16;470554;110;922606;-67
2022/03/12 03:29:57;;;;;;;3.24;2.31;;;;;;;-8.69;80.04;101927.94;474346;110;922554;-69
2022/03/12 03:31:04;;;;;;;2.71;2.07;;;;;;;-8.68;80.00;101931.44;466617;110;923138;-68
2022/03/12 03:32:08;;;;;;;3.47;2.06;;;;;;;-8.69;80.01;101932.36;473825;110;922477;-67
2022/03/12 03:33:14;;;;;;;3.31;1.76;;;;;;;-8.69;80.04;101932.36;467787;110;922625;-68
2022/03/12 03:34:19;;;;;;;2.56;2.08;;;;;;;-8.68;80.06;101940.23;472013;110;922505;-69
2022/03/12 03:35:22;;;;;;;2.13;1.66;;;;;;;-8.67;80.07;101930.53;473772;110;922497;-66
2022/03/12 03:36:26;;;;;;;2.84;2.06;;;;;;;-8.67;80.14;101934.03;468864;110;922483;-68
2022/03/12 03:37:29;;;;;;;2.89;2.02;;;;;;;-8.67;80.12;101941.10;470115;110;925007;-67
2022/03/12 03:38:32;;;;;;;3.31;2.37;;;;;;;-8.67;80.13;101935.81;472935;110;923055;-69
2022/03/12 03:39:37;;;;;;;3.02;2.12;;;;;;;-8.66;80.21;101934.90;471112;110;923015;-69
2022/03/12 03:40:43;;;;;;;3.09;2.22;;;;;;;-8.68;80.11;101940.23;468738;110;922703;-67
2022/03/12 03:41:47;;;;;;;3.51;2.11;;;;;;;-8.69;80.09;101940.28;470309;110;922576;-69
2022/03/12 03:42:50;;;;;;;4.97;2.69;;;;;;;-8.70;80.08;101939.42;475243;110;922945;-67
2022/03/12 03:43:54;;;;;;;5.38;2.36;;;;;;;-8.70;80.11;101943.84;468945;110;923112;-68
2022/03/12 03:45:02;;;;;;;6.07;2.97;;;;;;;-8.70;80.22;101947.35;467906;110;922966;-68
2022/03/12 03:46:04;;;;;;;5.98;3.02;;;;;;;-8.71;80.07;101952.72;468327;110;922517;-67
2022/03/12 03:47:07;;;;;;;3.75;2.31;;;;;;;-8.72;80.07;101943.92;471365;110;922611;-70
2022/03/12 03:48:13;;;;;;;6.94;3.18;;;;;;;-8.71;80.10;101944.80;476995;110;922550;-65
2022/03/12 03:49:16;;;;;;;4.26;2.59;;;;;;;-8.71;80.04;101948.27;466558;110;922483;-68
2022/03/12 03:50:25;;;;;;;3.58;2.62;;;;;;;-8.71;80.00;101944.80;472653;110;922543;-69
2022/03/12 03:51:26;;;;;;;6.02;3.36;;;;;;;-8.71;79.95;101942.98;470578;110;922528;-68
2022/03/12 03:52:29;;;;;;;4.28;2.94;;;;;;;-8.71;79.95;101944.80;473565;110;922870;-66
2022/03/12 03:53:33;;;;;;;3.53;2.65;;;;;;;-8.71;79.92;101944.80;474251;110;922507;-69
2022/03/12 03:54:38;;;;;;;3.07;2.68;;;;;;;-8.71;79.83;101947.44;472128;110;922598;-68
2022/03/12 03:55:42;;;;;;;4.19;2.82;;;;;;;-8.72;79.77;101950.99;466302;112;922879;-69
2022/03/12 03:56:45;;;;;;;3.26;2.69;;;;;;;-8.74;79.65;101948.41;465192;110;922746;-67
2022/03/12 03:57:49;;;;;;;3.30;2.64;;;;;;;-8.74;79.71;101951.05;472354;110;922615;-68
2022/03/12 03:58:52;;;;;;;4.49;3.05;;;;;;;-8.74;79.66;101943.11;472921;110;922712;-68
2022/03/12 03:59:55;;;;;;;4.97;3.59;;;;;;;-8.74;79.63;101951.05;475796;110;930674;-69
2022/03/12 04:01:02;;;;;;;6.28;3.60;;;;;;;-8.74;79.60;101947.53;470764;110;922569;-69
2022/03/12 04:02:06;;;;;;;4.66;3.61;;;;;;;-8.73;79.62;101951.91;470937;110;930576;-67
2022/03/12 04:03:11;;;;;;;4.30;2.96;;;;;;;-8.74;79.53;101951.05;472383;110;923047;-68
2022/03/12 04:04:14;;;;;;;4.08;2.98;;;;;;;-8.76;79.47;101946.72;474547;110;922520;-68
2022/03/12 04:05:18;;;;;;;4.62;2.58;;;;;;;-8.78;79.36;101957.38;475365;110;922904;-68
2022/03/12 04:06:23;;;;;;;3.47;2.96;;;;;;;-8.83;79.36;101956.69;473772;110;930598;-67
2022/03/12 04:07:26;;;;;;;7.63;2.83;;;;;;;-8.84;79.38;101954.09;470473;110;930740;-68
2022/03/12 04:08:31;;;;;;;3.10;2.44;;;;;;;-8.87;79.38;101955.06;467227;110;922555;-68
2022/03/12 04:09:34;;;;;;;4.07;3.09;;;;;;;-8.87;79.47;101952.42;467617;110;930457;-68
2022/03/12 04:10:39;;;;;;;4.66;2.73;;;;;;;-8.88;79.40;101959.52;474650;110;922588;-69
2022/03/12 04:11:43;;;;;;;5.49;3.36;;;;;;;-8.87;79.46;101960.34;469228;110;930654;-70
2022/03/12 04:12:46;;;;;;;3.79;2.61;;;;;;;-8.85;79.52;101966.45;473726;110;922609;-68
2022/03/12 04:13:52;;;;;;;5.37;3.92;;;;;;;-8.84;79.53;101957.61;472164;110;922637;-67
2022/03/12 04:14:57;;;;;;;4.90;2.72;;;;;;;-8.80;79.58;101971.55;467886;110;922597;-66
2022/03/12 04:16:02;;;;;;;5.16;3.26;;;;;;;-8.78;79.64;101973.23;467854;110;922619;-67
2022/03/12 04:17:05;;;;;;;4.62;3.41;;;;;;;-8.74;79.67;101963.39;473810;110;922780;-66
2022/03/12 04:18:09;;;;;;;5.01;3.67;;;;;;;-8.71;79.74;101960.66;470267;110;922561;-69
2022/03/12 04:19:13;;;;;;;6.68;3.78;;;;;;;-8.68;79.76;101969.31;471774;110;922907;-67
2022/03/12 04:20:19;;;;;;;6.04;4.01;;;;;;;-8.67;79.79;101964.89;473234;110;922992;-67
2022/03/12 04:21:23;;;;;;;4.57;3.37;;;;;;;-8.67;79.80;101962.25;471906;110;922615;-68
2022/03/12 04:22:27;;;;;;;5.91;3.70;;;;;;;-8.65;79.83;101963.03;475321;109;923197;-69
2022/03/12 04:23:30;;;;;;;5.27;4.21;;;;;;;-8.66;79.79;101963.98;474307;110;930480;-68
2022/03/12 04:24:35;;;;;;;6.79;4.67;;;;;;;-8.68;79.80;101965.81;474222;110;930529;-67
2022/03/12 04:25:39;;;;;;;5.69;4.58;;;;;;;-8.68;79.70;101973.73;472367;110;930767;-68
2022/03/12 04:26:43;;;;;;;6.24;4.38;;;;;;;-8.67;79.83;101967.54;472102;110;922523;-68
2022/03/12 04:27:47;;;;;;;6.22;5.07;;;;;;;-8.68;79.70;101965.81;474668;110;922703;-69
2022/03/12 04:28:51;;;;;;;6.44;4.57;;;;;;;-8.69;79.77;101967.59;474987;110;922704;-67
2022/03/12 04:29:55;;;;;;;6.64;4.85;;;;;;;-8.68;79.85;101968.45;474112;110;923005;-69
2022/03/12 04:31:00;;;;;;;7.81;4.87;;;;;;;-8.66;79.90;101962.20;473593;110;922961;-70
2022/03/12 04:32:11;;;;;;;6.62;5.47;;;;;;;-8.50;80.03;101965.11;468599;110;1203976;-69
2022/03/12 04:33:15;;;;;;;6.42;5.34;;;;;;;-8.56;80.05;101970.63;465121;113;922509;-69
2022/03/12 04:34:19;;;;;;;6.64;5.29;;;;;;;-8.52;80.07;101967.80;465853;113;922505;-65
2022/03/12 04:35:22;;;;;;;6.39;5.02;;;;;;;-8.47;80.03;101971.12;465964;113;922631;-67
2022/03/12 04:36:26;;;;;;;7.52;5.25;;;;;;;-8.42;80.11;101967.43;461645;114;930612;-68
2022/03/12 04:37:29;;;;;;;6.54;4.34;;;;;;;-8.40;80.15;101966.46;461618;114;922772;-67
2022/03/12 04:38:33;;;;;;;7.53;5.00;;;;;;;-8.37;80.18;101966.33;461835;114;922501;-66
2022/03/12 04:39:36;;;;;;;6.29;4.96;;;;;;;-8.37;80.16;101976.91;461774;114;930560;-68
2022/03/12 04:40:41;;;;;;;6.97;5.59;;;;;;;-8.35;80.17;101974.21;461849;114;922700;-69
2022/03/12 04:41:44;;;;;;;9.61;6.17;;;;;;;-8.36;80.19;101978.64;461220;114;930473;-67
2022/03/12 04:42:48;;;;;;;5.08;4.03;;;;;;;-8.35;80.20;101971.56;461846;114;922548;-68
2022/03/12 04:43:54;;;;;;;4.41;3.59;;;;;;;-8.37;80.12;101974.27;461773;114;931054;-67
2022/03/12 04:44:56;;;;;;;4.53;2.96;;;;;;;-8.38;80.16;101979.64;461329;114;930507;-68
2022/03/12 04:46:02;;;;;;;4.38;3.07;;;;;;;-8.40;80.17;101979.69;461383;114;922598;-68
2022/03/12 04:47:09;;;;;;;3.52;2.63;;;;;;;-8.45;80.04;101964.01;461144;114;922825;-66
2022/03/12 04:48:16;;;;;;;4.13;2.97;;;;;;;-8.47;79.94;101972.91;461721;114;922622;-67
2022/03/12 04:49:19;;;;;;;3.36;2.49;;;;;;;-8.50;80.02;101970.40;461397;114;922768;-68
2022/03/12 04:50:24;;;;;;;3.23;2.31;;;;;;;-8.51;80.17;101974.82;461597;114;923049;-68
2022/03/12 04:51:29;;;;;;;3.01;2.18;;;;;;;-8.50;80.14;101975.69;461450;114;922642;-67
2022/03/12 04:52:32;;;;;;;3.43;2.58;;;;;;;-8.51;79.98;101971.31;461821;114;927279;-69
2022/03/12 04:53:36;;;;;;;2.82;2.31;;;;;;;-8.56;79.93;101975.92;461949;114;922591;-67
2022/03/12 04:54:39;;;;;;;3.16;2.35;;;;;;;-8.61;79.91;101969.95;461556;114;922533;-68
2022/03/12 04:55:45;;;;;;;3.22;2.26;;;;;;;-8.63;79.90;101969.14;452335;117;930429;-68
2022/03/12 04:56:49;;;;;;;4.46;2.41;;;;;;;-8.64;80.05;101968.27;453393;114;923159;-68